createdAt,value
2022-09-14T00:02:29.605Z,4.21
2022-09-14T00:07:31.150Z,4.212
2022-09-14T00:12:32.791Z,4.21
2022-09-14T00:17:34.483Z,4.21
2022-09-14T00:22:36.042Z,4.21
2022-09-14T00:27:37.810Z,4.21
2022-09-14T00:32:39.503Z,4.21
2022-09-14T00:37:40.824Z,4.21
2022-09-14T00:42:42.198Z,4.21
2022-09-14T00:47:44.056Z,4.21
2022-09-14T00:52:45.860Z,4.21
2022-09-14T00:57:47.280Z,4.21
2022-09-14T01:02:49.277Z,4.21
2022-09-14T01:07:50.720Z,4.21
2022-09-14T01:12:52.222Z,4.21
2022-09-14T01:17:54.187Z,4.21
2022-09-14T01:22:56.025Z,4.21
2022-09-14T01:27:57.208Z,4.21
2022-09-14T01:32:59.460Z,4.208
2022-09-14T01:38:01.137Z,4.208
2022-09-14T01:38:07.576Z,4.208
2022-09-14T01:43:09.563Z,4.208
2022-09-14T01:48:11.104Z,4.208
2022-09-14T01:53:12.832Z,4.208
2022-09-14T01:58:14.811Z,4.208
2022-09-14T02:03:16.717Z,4.208
2022-09-14T02:08:18.057Z,4.208
2022-09-14T02:13:19.490Z,4.208
2022-09-14T02:18:21.207Z,4.208
2022-09-14T02:23:22.863Z,4.208
2022-09-14T02:28:24.443Z,4.208
2022-09-14T02:33:26.414Z,4.208
2022-09-14T02:38:27.711Z,4.208
2022-09-14T02:43:29.867Z,4.208
2022-09-14T02:48:31.407Z,4.208
2022-09-14T02:53:33.163Z,4.208
2022-09-14T02:58:35.221Z,4.206
2022-09-14T03:03:36.502Z,4.208
2022-09-14T03:08:38.311Z,4.206
2022-09-14T03:13:40.457Z,4.206
2022-09-14T03:18:42.410Z,4.206
2022-09-14T03:23:44.386Z,4.206
2022-09-14T03:28:46.475Z,4.206
2022-09-14T03:33:47.695Z,4.206
2022-09-14T03:38:49.780Z,4.206
2022-09-14T03:43:51.578Z,4.206
2022-09-14T03:48:52.879Z,4.206
2022-09-14T03:53:54.638Z,4.206
2022-09-14T03:58:56.755Z,4.206
2022-09-14T04:03:58.379Z,4.206
2022-09-14T04:08:59.919Z,4.206
2022-09-14T04:14:01.952Z,4.206
2022-09-14T04:19:04.077Z,4.206
2022-09-14T04:24:21.347Z,4.206
2022-09-14T04:29:07.624Z,4.206
2022-09-14T04:34:09.634Z,4.204
2022-09-14T04:39:11.631Z,4.204
2022-09-14T04:44:13.406Z,4.204
2022-09-14T04:49:14.780Z,4.204
2022-09-14T04:54:16.265Z,4.206
2022-09-14T04:59:17.523Z,4.204
2022-09-14T05:04:19.373Z,4.204
2022-09-14T05:09:21.325Z,4.204
2022-09-14T05:14:23.462Z,4.204
2022-09-14T05:19:25.614Z,4.204
2022-09-14T05:24:27.424Z,4.204
2022-09-14T05:29:28.846Z,4.204
2022-09-14T05:34:30.814Z,4.204
2022-09-14T05:39:32.094Z,4.204
2022-09-14T05:44:34.145Z,4.204
2022-09-14T05:49:35.738Z,4.204
2022-09-14T05:54:37.802Z,4.204
2022-09-14T05:59:39.042Z,4.204
2022-09-14T06:04:41.286Z,4.202
2022-09-14T06:09:42.372Z,4.202
2022-09-14T06:14:43.589Z,4.202
2022-09-14T06:19:44.978Z,4.202
2022-09-14T06:24:46.218Z,4.202
2022-09-14T06:29:47.511Z,4.202
2022-09-14T06:34:48.809Z,4.202
2022-09-14T06:39:50.674Z,4.202
2022-09-14T06:44:52.625Z,4.202
2022-09-14T06:49:54.755Z,4.204
2022-09-14T06:54:56.906Z,4.204
2022-09-14T06:59:58.957Z,4.204
2022-09-14T07:05:00.249Z,4.204
2022-09-14T07:10:01.696Z,4.204
2022-09-14T07:15:03.067Z,4.204
2022-09-14T07:20:05.046Z,4.206
2022-09-14T07:25:06.682Z,4.206
2022-09-14T07:30:08.403Z,4.206
2022-09-14T07:35:10.170Z,4.208
2022-09-14T07:40:11.672Z,4.208
2022-09-14T07:45:13.096Z,4.208
2022-09-14T07:50:14.691Z,4.21
2022-09-14T07:55:16.600Z,4.21
2022-09-14T08:00:18.490Z,4.212
2022-09-14T08:05:20.389Z,4.212
2022-09-14T08:10:21.699Z,4.212
2022-09-14T08:15:27.759Z,4.214
2022-09-14T08:20:24.810Z,4.214
2022-09-14T08:25:26.676Z,4.214
2022-09-14T08:30:28.619Z,4.214
2022-09-14T08:35:53.834Z,4.216
2022-09-14T08:40:31.301Z,4.216
2022-09-14T08:45:33.037Z,4.218
2022-09-14T08:50:38.721Z,4.218
2022-09-14T08:55:36.243Z,4.22
2022-09-14T09:00:38.326Z,4.22
2022-09-14T09:05:40.128Z,4.22
2022-09-14T09:10:42.029Z,4.22
2022-09-14T09:15:43.373Z,4.22
2022-09-14T09:20:44.782Z,4.22
2022-09-14T09:25:46.691Z,4.222
2022-09-14T09:30:48.577Z,4.22
2022-09-14T09:35:50.541Z,4.22
2022-09-14T09:40:51.700Z,4.22
2022-09-14T09:45:53.491Z,4.22
2022-09-14T09:50:55.569Z,4.22
2022-09-14T09:55:57.500Z,4.22
2022-09-14T10:00:59.485Z,4.22
2022-09-14T10:06:01.398Z,4.22
2022-09-14T10:11:03.134Z,4.22
2022-09-14T10:16:04.678Z,4.22
2022-09-14T10:21:05.967Z,4.22
2022-09-14T10:26:07.610Z,4.22
2022-09-14T10:31:09.592Z,4.22
2022-09-14T10:36:11.152Z,4.22
2022-09-14T10:41:12.784Z,4.22
2022-09-14T10:46:14.151Z,4.22
2022-09-14T10:51:16.305Z,4.22
2022-09-14T10:56:17.861Z,4.22
2022-09-14T11:01:19.859Z,4.22
2022-09-14T11:06:21.976Z,4.22
2022-09-14T11:11:23.078Z,4.22
2022-09-14T11:16:24.740Z,4.22
2022-09-14T11:21:26.739Z,4.22
2022-09-14T11:26:28.031Z,4.218
2022-09-14T11:31:29.532Z,4.22
2022-09-14T11:36:31.689Z,4.22
2022-09-14T11:41:33.004Z,4.22
2022-09-14T11:46:34.584Z,4.22
2022-09-14T11:51:36.376Z,4.22
2022-09-14T11:56:38.114Z,4.22
2022-09-14T12:01:39.612Z,4.22
2022-09-14T12:06:40.842Z,4.22
2022-09-14T12:11:42.715Z,4.22
2022-09-14T12:16:44.879Z,4.22
2022-09-14T12:21:46.723Z,4.22
2022-09-14T12:26:47.926Z,4.22
2022-09-14T12:31:49.888Z,4.22
2022-09-14T12:36:51.126Z,4.22
2022-09-14T12:41:52.896Z,4.22
2022-09-14T12:46:54.974Z,4.22
2022-09-14T12:52:04.928Z,4.22
2022-09-14T12:56:58.382Z,4.22
2022-09-14T13:01:59.723Z,4.22
2022-09-14T13:07:01.190Z,4.22
2022-09-14T13:12:02.942Z,4.22
2022-09-14T13:17:04.968Z,4.22
2022-09-14T13:22:06.586Z,4.22
2022-09-14T13:27:08.210Z,4.22
2022-09-14T13:32:09.577Z,4.22
2022-09-14T13:37:10.990Z,4.22
2022-09-14T13:42:12.967Z,4.22
2022-09-14T13:47:14.285Z,4.22
2022-09-14T13:52:16.106Z,4.22
2022-09-14T13:57:17.694Z,4.22
2022-09-14T14:02:19.209Z,4.22
2022-09-14T14:07:20.567Z,4.22
2022-09-14T14:12:22.511Z,4.22
2022-09-14T14:17:23.776Z,4.22
2022-09-14T14:22:25.179Z,4.22
2022-09-14T14:27:26.461Z,4.22
2022-09-14T14:32:27.871Z,4.22
2022-09-14T14:37:29.339Z,4.22
2022-09-14T14:42:30.761Z,4.22
2022-09-14T14:47:32.426Z,4.22
2022-09-14T14:52:34.540Z,4.22
2022-09-14T14:57:35.888Z,4.22
2022-09-14T15:02:37.196Z,4.22
2022-09-14T15:07:38.738Z,4.22
2022-09-14T15:12:40.423Z,4.22
2022-09-14T15:17:42.252Z,4.22
2022-09-14T15:22:43.942Z,4.22
2022-09-14T15:27:45.616Z,4.22
2022-09-14T15:32:46.930Z,4.22
2022-09-14T15:37:49.021Z,4.22
2022-09-14T15:42:50.923Z,4.22
2022-09-14T15:47:52.989Z,4.22
2022-09-14T15:52:57.085Z,4.22
2022-09-14T15:57:56.600Z,4.22
2022-09-14T16:02:58.572Z,4.22
2022-09-14T16:08:00.243Z,4.218
2022-09-14T16:13:02.235Z,4.218
2022-09-14T16:18:03.648Z,4.218
2022-09-14T16:23:05.704Z,4.218
2022-09-14T16:28:06.988Z,4.216
2022-09-14T16:33:08.234Z,4.216
2022-09-14T16:38:09.931Z,4.216
2022-09-14T16:43:11.672Z,4.216
2022-09-14T16:48:13.194Z,4.216
2022-09-14T16:53:15.103Z,4.216
2022-09-14T16:58:17.263Z,4.214
2022-09-14T17:03:18.750Z,4.214
2022-09-14T17:08:20.319Z,4.214
2022-09-14T17:13:22.436Z,4.214
2022-09-14T17:18:24.117Z,4.214
2022-09-14T17:23:25.452Z,4.214
2022-09-14T17:28:27.342Z,4.214
2022-09-14T17:33:28.531Z,4.214
2022-09-14T17:38:30.197Z,4.214
2022-09-14T17:43:31.626Z,4.214
2022-09-14T17:48:33.675Z,4.214
2022-09-14T17:53:35.714Z,4.214
2022-09-14T17:58:37.717Z,4.214
2022-09-14T18:03:39.452Z,4.212
2022-09-14T18:08:41.234Z,4.212
2022-09-14T18:13:42.867Z,4.212
2022-09-14T18:18:44.671Z,4.212
2022-09-14T18:23:46.249Z,4.212
2022-09-14T18:23:52.542Z,4.212
2022-09-14T18:28:54.624Z,4.212
2022-09-14T18:33:56.029Z,4.212
2022-09-14T18:38:57.530Z,4.212
2022-09-14T18:43:59.257Z,4.212
2022-09-14T18:49:00.744Z,4.212
2022-09-14T18:54:01.934Z,4.212
2022-09-14T18:59:03.813Z,4.212
2022-09-14T19:04:05.095Z,4.21
2022-09-14T19:09:07.368Z,4.21
2022-09-14T19:14:09.394Z,4.21
2022-09-14T19:19:11.258Z,4.21
2022-09-14T19:24:18.049Z,4.212
2022-09-14T19:29:14.426Z,4.212
2022-09-14T19:34:16.049Z,4.21
2022-09-14T19:39:18.029Z,4.212
2022-09-14T19:44:19.533Z,4.21
2022-09-14T19:49:20.985Z,4.212
2022-09-14T19:54:22.920Z,4.212
2022-09-14T19:59:24.942Z,4.212
2022-09-14T20:04:27.050Z,4.212
2022-09-14T20:09:28.408Z,4.212
2022-09-14T20:14:30.537Z,4.212
2022-09-14T20:19:31.891Z,4.212
2022-09-14T20:24:33.813Z,4.212
2022-09-14T20:29:35.574Z,4.212
2022-09-14T20:34:36.895Z,4.212
2022-09-14T20:39:38.549Z,4.212
2022-09-14T20:44:40.327Z,4.212
2022-09-14T20:49:42.281Z,4.212
2022-09-14T20:54:43.293Z,4.21
2022-09-14T20:59:45.434Z,4.21
2022-09-14T21:04:47.249Z,4.21
2022-09-14T21:09:48.827Z,4.21
2022-09-14T21:14:50.693Z,4.21
2022-09-14T21:19:52.102Z,4.21
2022-09-14T21:24:53.461Z,4.21
2022-09-14T21:29:55.642Z,4.21
2022-09-14T21:34:57.252Z,4.21
2022-09-14T21:39:58.921Z,4.21
2022-09-14T21:45:00.342Z,4.21
2022-09-14T21:50:02.056Z,4.21
2022-09-14T21:55:04.134Z,4.21
2022-09-14T22:15:09.798Z,4.208
2022-09-14T22:20:11.381Z,4.208
2022-09-14T22:25:13.215Z,4.208
2022-09-14T22:30:14.437Z,4.208
2022-09-14T22:35:16.278Z,4.208
2022-09-14T22:40:17.585Z,4.208
2022-09-14T22:45:19.425Z,4.208
2022-09-14T22:50:21.408Z,4.208
2022-09-14T22:55:22.784Z,4.208
2022-09-14T23:00:24.774Z,4.208
2022-09-14T23:05:26.456Z,4.208
2022-09-14T23:10:27.618Z,4.208
2022-09-14T23:15:29.702Z,4.208
2022-09-14T23:20:31.280Z,4.208
2022-09-14T23:25:32.933Z,4.21
2022-09-14T23:30:35.073Z,4.21
2022-09-14T23:35:37.819Z,4.21
2022-09-14T23:40:38.329Z,4.21
2022-09-14T23:45:39.812Z,4.21
2022-09-14T23:50:41.704Z,4.21
2022-09-14T23:55:43.011Z,4.21
